Time;durP1;ratioP1;P1;durP2;ratioP2;P2;SDS_P1;SDS_P2;PMS_P1;PMS_P2;Temp;Humidity;BMP_temperature;BMP_pressure;BME280_temperature;BME280_humidity;BME280_pressure;Samples;Min_cycle;Max_cycle;Signal;HPM_P1;HPM_P2
2023/08/22 00:01:30;;;;;;;;;;;24.70;71.40;;;24.07;80.64;96306.25;4972144;28;19920;-64
2023/08/22 00:03:56;;;;;;;;;;;24.70;71.60;;;24.03;80.71;96305.19;4953879;28;19988;-65
2023/08/22 00:06:23;;;;;;;;;;;24.70;71.50;;;24.02;81.03;96302.78;4970880;28;19910;-65
2023/08/22 00:08:49;;;;;;;;;;;24.60;71.60;;;24.00;80.10;96304.94;4937347;28;20631;-65
2023/08/22 00:11:15;;;;;;;;;;;24.60;71.50;;;24.00;80.73;96304.94;4985419;28;19914;-65
2023/08/22 00:13:41;;;;;;;;;;;24.60;71.50;;;23.97;81.18;96302.75;4954482;28;20373;-65
2023/08/22 00:16:06;;;;;;;;;;;24.60;71.80;;;23.96;81.24;96306.53;4941295;28;19917;-65
2023/08/22 00:18:32;;;;;;;;;;;24.60;71.60;;;23.92;80.60;96300.88;4968617;28;19921;-65
2023/08/22 00:20:58;;;;;;;;;;;24.60;71.50;;;23.89;81.38;96300.63;4942231;28;19921;-65
2023/08/22 00:23:23;;;;;;;;;;;24.50;71.70;;;23.81;81.30;96293.91;4956139;28;19914;-65
2023/08/22 00:25:50;;;;;;;;;;;24.50;71.70;;;23.78;81.89;96306.00;4958959;28;19914;-65
2023/08/22 00:28:16;;;;;;;;;;;24.50;72.10;;;23.76;82.32;96302.78;4954189;28;19963;-65
2023/08/22 00:30:41;;;;;;;;;;;24.40;72.40;;;23.74;82.88;96304.09;4976603;28;19913;-65
2023/08/22 00:33:07;;;;;;;;;;;24.50;72.20;;;23.73;82.52;96307.84;4969185;28;20382;-65
2023/08/22 00:35:33;;;;;;;;;;;24.30;72.40;;;23.69;83.22;96299.53;4960795;28;19918;-65
2023/08/22 00:37:58;;;;;;;;;;;24.30;72.80;;;23.63;84.00;96303.28;4937493;28;19976;-65
2023/08/22 00:40:24;;;;;;;;;;;24.30;73.00;;;23.58;84.07;96292.53;4954018;28;19920;-65
2023/08/22 00:42:50;;;;;;;;;;;24.30;73.00;;;23.54;84.71;96288.75;4970564;28;19914;-65
2023/08/22 00:45:16;;;;;;;;;;;24.30;72.90;;;23.57;84.18;96287.44;4969755;28;19925;-65
2023/08/22 00:47:41;;;;;;;;;;;24.30;72.50;;;23.58;83.68;96286.38;4942003;28;19921;-65
2023/08/22 00:50:07;;;;;;;;;;;24.40;72.30;;;23.61;82.92;96283.94;4953433;28;19918;-65
2023/08/22 00:52:33;;;;;;;;;;;24.40;72.20;;;23.64;83.05;96280.72;4953747;28;20369;-64
2023/08/22 00:54:59;;;;;;;;;;;24.50;71.90;;;23.68;82.30;96278.31;4953612;28;19916;-64
2023/08/22 00:57:25;;;;;;;;;;;24.50;71.70;;;23.69;83.01;96278.03;4956722;28;19910;-64
2023/08/22 00:59:51;;;;;;;;;;;24.50;71.80;;;23.73;82.29;96286.38;4953574;28;19914;-64
2023/08/22 01:02:16;;;;;;;;;;;24.50;71.50;;;23.73;82.66;96279.09;4934992;28;19914;-65
2023/08/22 01:04:42;;;;;;;;;;;24.50;71.80;;;23.70;82.81;96276.97;4970117;28;19914;-66
2023/08/22 01:07:29;;;;;;;;;;;24.40;72.00;;;23.68;83.02;96276.44;4969232;28;19918;-65
2023/08/22 01:10:02;;;;;;;;;;;24.40;72.00;;;23.67;83.77;96279.38;4966177;28;19914;-65
2023/08/22 01:12:37;;;;;;;;;;;24.30;72.40;;;23.61;84.67;96285.81;4955619;28;19921;-65
2023/08/22 01:15:13;;;;;;;;;;;24.20;73.00;;;23.55;83.91;96285.00;4970591;28;20008;-65
2023/08/22 01:17:38;;;;;;;;;;;24.20;73.20;;;23.51;84.66;96286.56;4951210;28;20297;-65
2023/08/22 01:20:07;;;;;;;;;;;24.10;73.60;;;23.43;85.06;96287.09;4959678;28;19914;-65
2023/08/22 01:22:33;;;;;;;;;;;24.10;73.60;;;23.37;86.13;96282.81;4966594;28;20008;-65
2023/08/22 01:24:58;;;;;;;;;;;24.00;73.90;;;23.32;86.48;96288.16;4969195;28;19910;-65
2023/08/22 01:27:26;;;;;;;;;;;24.00;74.10;;;23.29;86.69;96283.31;4934978;28;19918;-65
2023/08/22 01:29:57;;;;;;;;;;;23.90;74.40;;;23.23;87.17;96288.66;4953131;28;20006;-65
2023/08/22 01:32:26;;;;;;;;;;;23.90;74.50;;;23.20;87.50;96289.19;4952873;28;19996;-65
2023/08/22 01:34:52;;;;;;;;;;;23.90;74.60;;;23.15;87.68;96293.75;4950112;28;20252;-65
2023/08/22 01:37:17;;;;;;;;;;;23.80;74.80;;;23.11;88.58;96292.66;4933782;28;19921;-64
2023/08/22 01:39:43;;;;;;;;;;;23.80;74.90;;;23.07;88.22;96295.03;4939625;28;20432;-65
2023/08/22 01:42:10;;;;;;;;;;;23.80;74.90;;;23.04;88.75;96287.53;4967211;28;19914;-64
2023/08/22 01:44:36;;;;;;;;;;;23.70;75.20;;;23.02;89.40;96284.31;4954731;28;19917;-65
2023/08/22 01:47:02;;;;;;;;;;;23.70;75.40;;;22.99;89.65;96282.16;4957069;28;19945;-65
2023/08/22 01:49:28;;;;;;;;;;;23.70;75.60;;;22.92;89.48;96276.22;4937176;28;19914;-64
2023/08/22 01:51:55;;;;;;;;;;;23.60;75.70;;;22.89;90.07;96271.38;4958022;28;20016;-65
2023/08/22 01:54:21;;;;;;;;;;;23.60;75.80;;;22.85;90.29;96268.41;4970075;28;19960;-65
2023/08/22 01:56:47;;;;;;;;;;;23.60;75.80;;;22.81;91.22;96269.16;4943058;28;19965;-65
2023/08/22 01:59:15;;;;;;;;;;;23.50;76.00;;;22.79;91.16;96265.94;4951759;28;19976;-65
2023/08/22 02:01:40;;;;;;;;;;;23.50;76.10;;;22.80;90.80;96262.19;4956876;28;19917;-64
2023/08/22 02:04:06;;;;;;;;;;;23.50;76.00;;;22.77;90.77;96273.44;4967662;28;19942;-64
2023/08/22 02:06:32;;;;;;;;;;;23.50;76.00;;;22.75;90.76;96268.34;4966708;28;19914;-64
2023/08/22 02:08:57;;;;;;;;;;;23.50;76.10;;;22.74;91.62;96268.59;4967394;28;19925;-63
2023/08/22 02:11:23;;;;;;;;;;;23.50;76.00;;;22.72;90.33;96268.88;4968151;28;20402;-64
2023/08/22 02:13:49;;;;;;;;;;;23.40;75.90;;;22.67;90.82;96273.41;4958274;28;20396;-64
2023/08/22 02:16:15;;;;;;;;;;;23.30;76.10;;;22.65;90.79;96262.16;4951348;28;19924;-64
2023/08/22 02:18:40;;;;;;;;;;;23.40;76.10;;;22.62;90.17;96264.25;4939626;28;20016;-64
2023/08/22 02:21:06;;;;;;;;;;;23.30;75.80;;;22.60;90.07;96261.03;4967216;28;19938;-64
2023/08/22 02:23:32;;;;;;;;;;;23.30;75.90;;;22.59;90.56;96250.56;4966804;28;19910;-64
2023/08/22 02:25:58;;;;;;;;;;;23.30;76.10;;;22.56;91.05;96267.97;4967499;28;19917;-64
2023/08/22 02:28:24;;;;;;;;;;;23.30;76.00;;;22.53;91.49;96260.47;4951083;28;20060;-64
2023/08/22 02:30:56;;;;;;;;;;;23.30;76.10;;;22.50;91.93;96254.81;4935523;28;19918;-64
2023/08/22 02:33:22;;;;;;;;;;;23.30;76.10;;;22.49;91.58;96261.25;4966045;28;20005;-64
2023/08/22 02:35:47;;;;;;;;;;;23.20;76.40;;;22.47;92.00;96263.38;4967787;28;20449;-64
2023/08/22 02:38:13;;;;;;;;;;;23.10;76.50;;;22.44;91.97;96254.00;4966133;28;19921;-64
2023/08/22 02:40:39;;;;;;;;;;;23.10;76.50;;;22.43;92.01;96256.94;4959407;28;19959;-64
2023/08/22 02:43:04;;;;;;;;;;;23.20;76.50;;;22.43;92.75;96257.75;4980995;28;19922;-64
2023/08/22 02:45:30;;;;;;;;;;;23.20;76.50;;;22.41;91.90;96249.16;4951230;28;20299;-65
2023/08/22 02:47:56;;;;;;;;;;;23.10;76.50;;;22.39;92.85;96251.25;4947818;28;19924;-67
2023/08/22 02:50:24;;;;;;;;;;;23.10;76.70;;;22.39;92.28;96253.13;4951943;28;19909;-66
2023/08/22 02:52:50;;;;;;;;;;;23.10;76.70;;;22.38;92.61;96259.56;4961412;28;19972;-64
2023/08/22 02:55:17;;;;;;;;;;;23.10;76.60;;;22.37;93.32;96252.59;4947860;28;19950;-64
2023/08/22 02:57:42;;;;;;;;;;;23.10;76.50;;;22.34;93.33;96259.28;4961420;28;19914;-64
2023/08/22 03:00:11;;;;;;;;;;;23.10;76.60;;;22.32;93.31;96253.38;4968145;28;19921;-64
2023/08/22 03:02:37;;;;;;;;;;;23.10;76.50;;;22.31;92.47;96255.25;4947567;28;19911;-64
2023/08/22 03:05:06;;;;;;;;;;;23.10;76.50;;;22.29;92.74;96253.91;4932109;28;19918;-64
2023/08/22 03:07:32;;;;;;;;;;;23.00;76.40;;;22.27;92.48;96258.72;4949920;28;19945;-65
2023/08/22 03:09:58;;;;;;;;;;;23.00;76.40;;;22.25;92.81;96260.84;4950015;28;19914;-64
2023/08/22 03:12:23;;;;;;;;;;;23.00;76.40;;;22.23;92.64;96254.94;4950017;28;19920;-64
2023/08/22 03:14:49;;;;;;;;;;;23.00;76.40;;;22.22;93.51;96256.81;4966923;28;19959;-65
2023/08/22 03:17:15;;;;;;;;;;;23.00;76.40;;;22.21;92.19;96254.41;4964244;28;20254;-65
2023/08/22 03:19:41;;;;;;;;;;;22.90;76.30;;;22.19;92.88;96257.34;4961660;28;19954;-65
2023/08/22 03:22:07;;;;;;;;;;;23.00;76.30;;;22.15;93.25;96250.06;4959851;28;19914;-65
2023/08/22 03:24:33;;;;;;;;;;;22.90;76.60;;;22.13;93.06;96260.22;4953915;28;20299;-64
2023/08/22 03:26:59;;;;;;;;;;;22.90;76.60;;;22.09;93.05;96251.09;4960049;28;19965;-64
2023/08/22 03:29:25;;;;;;;;;;;22.80;76.60;;;22.06;93.19;96267.69;4965371;28;20358;-64
2023/08/22 03:31:50;;;;;;;;;;;22.80;76.70;;;22.06;92.71;96265.00;4950294;28;19921;-64
2023/08/22 03:34:16;;;;;;;;;;;22.80;76.70;;;22.02;93.38;96259.31;4990394;28;19916;-63
2023/08/22 03:36:42;;;;;;;;;;;22.80;76.70;;;21.98;93.77;96267.06;4963110;28;19981;-65
2023/08/22 03:39:07;;;;;;;;;;;22.70;76.80;;;21.97;93.65;96261.97;4943104;28;19921;-65
2023/08/22 03:41:33;;;;;;;;;;;22.70;76.70;;;21.97;94.06;96270.00;4966641;28;19952;-65
2023/08/22 03:43:59;;;;;;;;;;;22.70;76.80;;;21.96;94.35;96263.84;4952997;28;19940;-65
2023/08/22 03:46:24;;;;;;;;;;;22.70;76.80;;;21.92;94.08;96268.06;4936718;28;19917;-64
2023/08/22 03:48:50;;;;;;;;;;;22.80;76.80;;;21.91;94.97;96266.47;4961665;28;19918;-65
2023/08/22 03:51:15;;;;;;;;;;;22.70;76.90;;;21.89;95.05;96262.44;4968969;28;20285;-68
2023/08/22 03:53:41;;;;;;;;;;;22.70;76.90;;;21.89;95.38;96271.25;4953980;28;19910;-66
2023/08/22 03:56:07;;;;;;;;;;;22.70;77.00;;;21.86;95.98;96263.75;4968473;28;19940;-65
2023/08/22 03:58:33;;;;;;;;;;;22.60;77.10;;;21.86;94.72;96262.94;4969643;28;20432;-64
2023/08/22 04:01:04;;;;;;;;;;;22.60;77.20;;;21.85;94.96;96262.13;4954887;28;20435;-64
2023/08/22 04:03:30;;;;;;;;;;;22.60;77.10;;;21.86;95.70;96262.94;4950237;28;20013;-65
2023/08/22 04:05:58;;;;;;;;;;;22.70;77.00;;;21.84;95.13;96263.19;4955182;28;20052;-65
2023/08/22 04:08:23;;;;;;;;;;;22.70;76.90;;;21.83;95.91;96264.25;4972703;28;19913;-66
2023/08/22 04:10:49;;;;;;;;;;;22.70;76.80;;;21.83;95.06;96261.59;4971352;28;19910;-65
2023/08/22 04:13:15;;;;;;;;;;;22.60;76.80;;;21.83;94.39;96258.91;4956288;28;19914;-67
2023/08/22 04:15:40;;;;;;;;;;;22.70;76.80;;;21.84;94.81;96268.56;4972752;28;20266;-65
2023/08/22 04:18:06;;;;;;;;;;;22.70;76.70;;;21.83;95.00;96268.81;4971354;28;19910;-66
2023/08/22 04:20:32;;;;;;;;;;;22.70;76.80;;;21.82;95.21;96270.69;4971294;28;19929;-65
2023/08/22 04:22:58;;;;;;;;;;;22.70;76.80;;;21.81;95.11;96277.09;4969708;28;19913;-65
2023/08/22 04:25:23;;;;;;;;;;;22.60;76.90;;;21.78;96.15;96274.94;4968924;28;19979;-65
2023/08/22 04:27:49;;;;;;;;;;;22.60;77.20;;;21.78;96.15;96274.13;4971974;28;19918;-65
2023/08/22 04:30:15;;;;;;;;;;;22.60;77.20;;;21.78;96.98;96276.81;4970024;28;19910;-66
2023/08/22 04:32:40;;;;;;;;;;;22.60;77.10;;;21.76;96.58;96279.75;4954690;28;20208;-65
2023/08/22 04:35:06;;;;;;;;;;;22.60;77.20;;;21.71;96.54;96279.69;4972511;28;19916;-65
2023/08/22 04:37:32;;;;;;;;;;;22.60;77.60;;;21.72;96.48;96283.97;4968345;28;19956;-65
2023/08/22 04:39:58;;;;;;;;;;;22.60;77.50;;;21.74;97.55;96295.25;4953717;28;20258;-65
2023/08/22 04:42:23;;;;;;;;;;;22.70;77.40;;;21.74;97.19;96292.59;4970551;28;19964;-66
2023/08/22 04:44:49;;;;;;;;;;;22.60;77.50;;;21.76;97.77;96305.72;4941486;28;19968;-66
2023/08/22 04:47:15;;;;;;;;;;;22.60;77.50;;;21.78;98.63;96291.00;4955986;28;19914;-66
2023/08/22 04:49:40;;;;;;;;;;;22.70;77.60;;;21.78;97.67;96292.88;4971904;28;20333;-65
2023/08/22 04:52:06;;;;;;;;;;;22.70;77.30;;;21.80;97.78;96288.88;4954611;28;19910;-65
2023/08/22 04:54:33;;;;;;;;;;;22.70;77.10;;;21.81;97.63;96281.66;4952118;28;20235;-65
2023/08/22 04:56:59;;;;;;;;;;;22.80;77.00;;;21.82;98.22;96285.94;4955861;28;19914;-65
2023/08/22 04:59:24;;;;;;;;;;;22.80;76.90;;;21.83;97.21;96282.22;4953262;28;20464;-65
2023/08/22 05:01:50;;;;;;;;;;;22.80;76.70;;;21.83;96.97;96277.66;4970348;28;19914;-65
2023/08/22 05:04:16;;;;;;;;;;;22.70;76.80;;;21.83;97.14;96283.00;4954176;28;19910;-66
2023/08/22 05:06:42;;;;;;;;;;;22.80;76.70;;;21.86;97.20;96285.19;4969166;28;19910;-65
2023/08/22 05:09:09;;;;;;;;;;;22.90;76.70;;;21.89;97.33;96284.66;4962244;28;19914;-65
2023/08/22 05:11:35;;;;;;;;;;;22.90;76.50;;;21.92;97.11;96284.16;4953176;28;19917;-65
2023/08/22 05:14:01;;;;;;;;;;;22.90;76.50;;;21.93;98.73;96283.06;4971682;28;19914;-66
2023/08/22 05:16:26;;;;;;;;;;;23.00;76.40;;;21.96;97.20;96271.88;4959945;28;19932;-65
2023/08/22 05:18:52;;;;;;;;;;;23.00;76.20;;;21.97;96.90;96276.19;4953082;28;19914;-67
2023/08/22 05:21:18;;;;;;;;;;;23.00;76.30;;;22.00;95.89;96275.66;4954147;28;20266;-67
2023/08/22 05:23:43;;;;;;;;;;;23.00;76.00;;;22.04;97.39;96275.13;4952558;28;19910;-64
2023/08/22 05:26:09;;;;;;;;;;;23.10;75.90;;;22.06;95.96;96286.44;4962029;28;19917;-65
2023/08/22 05:28:35;;;;;;;;;;;23.10;76.00;;;22.10;95.95;96285.66;4953901;28;19960;-64
2023/08/22 05:31:00;;;;;;;;;;;23.10;75.90;;;22.13;96.69;96285.13;4953058;28;19988;-65
2023/08/22 05:33:26;;;;;;;;;;;23.20;75.80;;;22.19;95.34;96283.31;4969687;28;20398;-65
2023/08/22 05:35:52;;;;;;;;;;;23.20;75.60;;;22.24;95.01;96291.38;4952666;28;19916;-66
2023/08/22 05:38:17;;;;;;;;;;;23.30;75.40;;;22.26;95.18;96281.22;4971386;28;20293;-65
2023/08/22 05:40:43;;;;;;;;;;;23.30;75.20;;;22.33;95.37;96284.47;4971403;28;19916;-65
2023/08/22 05:43:09;;;;;;;;;;;23.50;74.80;;;22.39;94.71;96285.31;4971242;28;19910;-67
2023/08/22 05:45:34;;;;;;;;;;;23.60;74.50;;;22.44;94.27;96288.84;4953879;28;19925;-65
2023/08/22 05:48:00;;;;;;;;;;;23.60;74.20;;;22.48;93.43;96279.22;4972568;28;19922;-66
2023/08/22 05:50:26;;;;;;;;;;;23.70;74.00;;;22.55;93.84;96285.13;4953733;28;19910;-66
2023/08/22 05:52:52;;;;;;;;;;;23.80;73.90;;;22.64;94.12;96295.38;4957700;28;20396;-65
2023/08/22 05:55:18;;;;;;;;;;;23.80;73.70;;;22.70;94.36;96288.97;4954981;28;19921;-65
2023/08/22 05:57:43;;;;;;;;;;;24.00;73.60;;;22.77;93.83;96281.50;4967588;28;19910;-65
2023/08/22 06:00:10;;;;;;;;;;;24.10;73.40;;;22.85;93.28;96289.06;4955012;28;20427;-66
2023/08/22 06:02:35;;;;;;;;;;;24.20;72.90;;;22.93;92.53;96285.88;4967971;28;19964;-65
2023/08/22 06:05:02;;;;;;;;;;;24.30;72.70;;;23.01;92.61;96285.38;4954372;28;20341;-65
2023/08/22 06:07:27;;;;;;;;;;;24.40;72.40;;;23.08;91.97;96282.44;4954684;28;20004;-66
2023/08/22 06:09:53;;;;;;;;;;;24.40;71.90;;;23.12;91.54;96289.72;4955995;28;19917;-66
2023/08/22 06:12:19;;;;;;;;;;;24.50;71.80;;;23.20;91.36;96286.50;4951353;28;19932;-66
2023/08/22 06:14:44;;;;;;;;;;;24.60;71.60;;;23.28;90.53;96287.06;4951883;28;19921;-66
2023/08/22 06:17:10;;;;;;;;;;;24.70;71.20;;;23.34;89.19;96283.34;4960394;28;19916;-66
2023/08/22 06:19:36;;;;;;;;;;;24.70;70.60;;;23.36;89.67;96282.00;4951889;28;20362;-67
2023/08/22 06:22:02;;;;;;;;;;;24.60;70.90;;;23.41;90.13;96289.25;4954357;28;19910;-66
2023/08/22 06:24:27;;;;;;;;;;;24.80;70.70;;;23.48;88.91;96287.09;4953166;28;19914;-66
2023/08/22 06:26:53;;;;;;;;;;;24.90;70.10;;;23.59;89.91;96296.03;4967918;28;19910;-67
2023/08/22 06:29:19;;;;;;;;;;;25.00;69.90;;;23.67;88.38;96293.63;4971870;28;19914;-65
2023/08/22 06:31:44;;;;;;;;;;;25.20;69.20;;;23.73;87.64;96286.38;4951576;28;20006;-66
2023/08/22 06:34:10;;;;;;;;;;;25.10;69.30;;;23.82;88.18;96290.16;4953105;28;20354;-66
2023/08/22 06:36:36;;;;;;;;;;;25.30;69.40;;;23.90;87.82;96289.59;4953017;28;19916;-66
2023/08/22 06:39:03;;;;;;;;;;;25.40;69.10;;;23.99;86.88;96284.47;4970435;28;19941;-66
2023/08/22 06:41:35;;;;;;;;;;;25.50;68.70;;;24.03;87.52;96290.94;4968922;28;19917;-65
2023/08/22 06:44:07;;;;;;;;;;;25.50;69.00;;;24.10;86.35;96286.09;4969332;28;19918;-65
2023/08/22 06:46:35;;;;;;;;;;;25.60;68.40;;;24.14;86.50;96285.28;4971203;28;19909;-64
2023/08/22 06:49:01;;;;;;;;;;;25.60;68.40;;;24.23;86.33;96285.56;4952158;28;19926;-65
2023/08/22 06:51:26;;;;;;;;;;;25.60;68.30;;;24.31;86.14;96286.91;4974074;28;19916;-65
2023/08/22 06:53:52;;;;;;;;;;;25.70;68.10;;;24.34;84.42;96292.56;4952402;28;19910;-66
2023/08/22 06:56:18;;;;;;;;;;;25.70;67.60;;;24.42;84.67;96288.50;4951494;28;19913;-65
2023/08/22 06:58:43;;;;;;;;;;;25.80;67.40;;;24.49;84.63;96278.28;4965929;28;19964;-65
2023/08/22 07:01:09;;;;;;;;;;;25.90;67.40;;;24.56;83.28;96280.69;4952861;28;20285;-65
2023/08/22 07:03:35;;;;;;;;;;;26.00;66.70;;;24.64;83.80;96288.97;4950509;28;20281;-64
2023/08/22 07:06:00;;;;;;;;;;;26.10;66.60;;;24.72;83.14;96282.25;4969993;28;19980;-65
2023/08/22 07:08:27;;;;;;;;;;;26.20;66.10;;;24.79;83.11;96288.16;4973150;28;19914;-65
2023/08/22 07:10:59;;;;;;;;;;;26.30;66.40;;;24.90;82.81;96280.84;4971569;28;19914;-65
2023/08/22 07:13:24;;;;;;;;;;;26.50;65.70;;;25.00;81.03;96287.00;4972485;28;20001;-65
2023/08/22 07:15:50;;;;;;;;;;;26.50;64.70;;;25.09;81.78;96281.03;4939048;28;19917;-65
2023/08/22 07:18:16;;;;;;;;;;;26.70;65.10;;;25.24;82.85;96289.06;4973964;28;19916;-64
2023/08/22 07:20:42;;;;;;;;;;;27.00;64.90;;;25.39;81.48;96285.50;4974858;28;20375;-65
2023/08/22 07:23:07;;;;;;;;;;;27.20;64.20;;;25.54;80.38;96285.38;4973661;28;20391;-65
2023/08/22 07:25:33;;;;;;;;;;;27.30;63.40;;;25.68;80.30;96293.69;4973509;28;19910;-65
2023/08/22 07:27:59;;;;;;;;;;;27.50;63.10;;;25.87;80.44;96291.94;4949569;28;20332;-65
2023/08/22 07:30:24;;;;;;;;;;;27.70;62.80;;;26.01;77.53;96281.28;4962475;28;19916;-65
2023/08/22 07:32:50;;;;;;;;;;;27.90;61.20;;;26.17;77.73;96291.66;4954536;28;19914;-65
2023/08/22 07:35:16;;;;;;;;;;;28.10;61.30;;;26.35;78.81;96286.69;4964910;28;20393;-65
2023/08/22 07:37:41;;;;;;;;;;;28.40;61.10;;;26.55;77.14;96273.00;4972093;28;19910;-65
2023/08/22 07:40:07;;;;;;;;;;;28.70;59.80;;;26.78;76.76;96285.69;4965487;28;19914;-65
2023/08/22 07:42:35;;;;;;;;;;;29.00;59.60;;;27.01;76.73;96289.50;4973049;28;19910;-66
2023/08/22 07:45:01;;;;;;;;;;;29.20;59.20;;;27.25;76.76;96286.75;4973287;28;20430;-64
2023/08/22 07:47:27;;;;;;;;;;;29.60;58.60;;;27.48;74.04;96276.19;4973348;28;20424;-64
2023/08/22 07:49:53;;;;;;;;;;;29.70;57.60;;;27.69;74.20;96288.34;4973122;28;19920;-64
2023/08/22 07:52:18;;;;;;;;;;;30.00;57.00;;;27.89;72.57;96288.03;4954671;28;19932;-65
2023/08/22 07:54:44;;;;;;;;;;;30.10;56.00;;;28.12;71.81;96290.91;4958529;28;19910;-64
2023/08/22 07:57:11;;;;;;;;;;;30.40;55.70;;;28.32;70.67;96286.00;4957922;28;20266;-65
2023/08/22 07:59:38;;;;;;;;;;;30.60;54.70;;;28.51;71.29;96285.88;4957215;28;20282;-65
2023/08/22 08:02:04;;;;;;;;;;;30.90;54.60;;;28.72;69.04;96282.81;4954026;28;19926;-65
2023/08/22 08:04:33;;;;;;;;;;;31.00;53.30;;;28.89;68.18;96266.81;4962778;28;19917;-66
2023/08/22 08:06:58;;;;;;;;;;;31.10;52.60;;;29.08;67.86;96281.03;4971991;28;19921;-65
2023/08/22 08:09:24;;;;;;;;;;;31.40;52.20;;;29.28;67.98;96277.09;4956352;28;20289;-65
2023/08/22 08:11:50;;;;;;;;;;;31.60;52.50;;;29.47;67.25;96287.84;4971470;28;19957;-65
2023/08/22 08:14:16;;;;;;;;;;;31.80;51.60;;;29.60;66.82;96286.19;4956089;28;19913;-64
2023/08/22 08:16:42;;;;;;;;;;;31.90;51.50;;;29.74;66.45;96292.38;4954357;28;20369;-64
2023/08/22 08:19:07;;;;;;;;;;;32.00;51.40;;;29.95;67.68;96284.56;4955305;28;19917;-65
2023/08/22 08:21:34;;;;;;;;;;;32.40;51.70;;;30.15;65.35;96281.38;4954396;28;19910;-64
2023/08/22 08:23:59;;;;;;;;;;;32.50;50.20;;;30.36;64.80;96281.66;4938871;28;19914;-64
2023/08/22 08:26:26;;;;;;;;;;;32.90;49.70;;;30.52;63.65;96273.91;4973428;28;19917;-64
2023/08/22 08:28:52;;;;;;;;;;;32.80;48.50;;;30.66;63.62;96271.94;4970144;28;19953;-65
2023/08/22 08:31:18;;;;;;;;;;;33.00;48.50;;;30.80;63.94;96269.13;4954630;28;19914;-65
2023/08/22 08:33:43;;;;;;;;;;;33.10;49.10;;;30.97;63.24;96266.44;4954971;28;19914;-65
2023/08/22 08:36:09;;;;;;;;;;;33.30;48.50;;;31.16;62.39;96266.16;4971622;28;19920;-66
2023/08/22 08:38:35;;;;;;;;;;;33.60;47.80;;;31.31;60.82;96268.47;4972950;28;19910;-65
2023/08/22 08:41:00;;;;;;;;;;;33.70;47.00;;;31.42;62.59;96266.22;4970801;28;19940;-65
2023/08/22 08:43:26;;;;;;;;;;;33.90;47.70;;;31.57;61.46;96260.34;4954170;28;19910;-65
2023/08/22 08:45:52;;;;;;;;;;;34.10;46.70;;;31.77;61.09;96259.72;4955137;28;19922;-65
2023/08/22 08:48:17;;;;;;;;;;;34.40;46.40;;;31.92;60.11;96261.16;4954284;28;19971;-65
2023/08/22 08:50:43;;;;;;;;;;;34.50;46.00;;;32.11;61.19;96261.59;4970932;28;19910;-65
2023/08/22 08:53:09;;;;;;;;;;;34.90;46.30;;;32.29;58.97;96255.03;4952750;28;19926;-65
2023/08/22 08:55:35;;;;;;;;;;;34.90;44.90;;;32.46;59.62;96264.28;4953884;28;19964;-65
2023/08/22 08:58:01;;;;;;;;;;;35.10;45.30;;;32.64;58.32;96254.91;4956048;28;20285;-65
2023/08/22 09:00:27;;;;;;;;;;;35.20;44.80;;;32.84;58.22;96253.44;4972739;28;19925;-66
2023/08/22 09:02:53;;;;;;;;;;;35.60;44.40;;;33.06;57.58;96255.06;4951687;28;19917;-66
2023/08/22 09:05:19;;;;;;;;;;;35.80;43.70;;;33.27;56.95;96255.09;4967942;28;20271;-65
2023/08/22 09:07:44;;;;;;;;;;;36.10;43.50;;;33.54;57.26;96260.06;4972056;28;19925;-64
2023/08/22 09:10:10;;;;;;;;;;;36.60;43.10;;;33.80;54.22;96247.00;4973931;28;19910;-65
2023/08/22 09:12:36;;;;;;;;;;;36.80;40.70;;;34.02;54.24;96248.59;4957235;28;19910;-65
2023/08/22 09:15:02;;;;;;;;;;;37.00;40.80;;;34.21;53.70;96250.03;4972285;28;19917;-65
2023/08/22 09:17:29;;;;;;;;;;;37.10;40.90;;;34.38;53.35;96247.94;4955120;28;20404;-65
2023/08/22 09:19:54;;;;;;;;;;;37.40;40.20;;;34.65;53.64;96243.78;4970624;28;22060;-65
2023/08/22 09:22:21;;;;;;;;;;;37.80;40.10;;;34.92;51.75;96233.34;4985590;28;19917;-65
2023/08/22 09:24:51;;;;;;;;;;;38.00;38.70;;;35.06;52.44;96238.44;4953212;28;19993;-66
2023/08/22 09:27:19;;;;;;;;;;;38.00;39.30;;;35.20;51.52;96230.66;4956146;28;19957;-66
2023/08/22 09:29:45;;;;;;;;;;;38.30;38.30;;;35.44;50.39;96229.84;4954924;28;20338;-66
2023/08/22 09:32:11;;;;;;;;;;;38.60;37.80;;;35.64;51.02;96233.56;4968793;28;19914;-66
2023/08/22 09:34:37;;;;;;;;;;;38.90;37.70;;;35.87;50.76;96238.19;4954636;28;19910;-65
2023/08/22 09:37:02;;;;;;;;;;;39.30;37.60;;;36.07;49.81;96230.09;4938485;28;20341;-65
2023/08/22 09:39:30;;;;;;;;;;;39.40;36.90;;;36.25;48.42;96220.44;4954844;28;19916;-65
2023/08/22 09:41:57;;;;;;;;;;;39.40;36.50;;;36.49;48.07;96211.28;4955450;28;19992;-65
2023/08/22 09:44:24;;;;;;;;;;;39.90;35.70;;;36.80;47.80;96208.53;4969277;28;19910;-65
2023/08/22 09:46:51;;;;;;;;;;;40.30;34.80;;;37.06;47.12;96215.41;4955007;28;19999;-64
2023/08/22 09:49:17;;;;;;;;;;;40.60;35.60;;;37.24;47.08;96204.84;4952238;28;19913;-65
2023/08/22 09:51:55;;;;;;;;;;;40.50;34.40;;;37.43;46.27;96201.34;4975644;28;19917;-65
2023/08/22 09:54:21;;;;;;;;;;;40.80;34.70;;;37.60;45.32;96200.94;4971344;28;19910;-65
2023/08/22 09:56:47;;;;;;;;;;;40.90;33.50;;;37.82;43.44;96186.50;4969851;28;19937;-65
2023/08/22 09:59:14;;;;;;;;;;;41.60;32.10;;;38.00;43.95;96192.31;4970160;28;19914;-65
2023/08/22 10:01:40;;;;;;;;;;;41.60;32.40;;;38.12;44.43;96194.91;4969845;28;19971;-65
2023/08/22 10:04:06;;;;;;;;;;;41.90;33.10;;;38.39;42.69;96186.75;4948159;28;19963;-65
2023/08/22 10:06:35;;;;;;;;;;;42.40;31.00;;;38.59;43.09;96180.81;4944200;28;20325;-65
2023/08/22 10:09:09;;;;;;;;;;;42.70;31.30;;;38.86;42.35;96173.41;4954168;28;19918;-65
2023/08/22 10:11:47;;;;;;;;;;;43.30;31.20;;;39.10;42.69;96179.66;4954200;28;19914;-65
2023/08/22 10:14:18;;;;;;;;;;;43.70;30.50;;;39.35;42.18;96171.75;4952420;28;20416;-65
2023/08/22 10:16:44;;;;;;;;;;;44.00;29.70;;;39.55;42.10;96170.44;4954626;28;19910;-65
2023/08/22 10:19:10;;;;;;;;;;;44.40;30.20;;;39.77;40.88;96163.22;4971284;28;19914;-65
2023/08/22 10:21:45;;;;;;;;;;;44.70;29.20;;;39.97;39.92;96161.13;4937752;28;19910;-65
2023/08/22 10:24:26;;;;;;;;;;;44.80;28.70;;;40.20;39.11;96155.44;4954602;28;19914;-65
2023/08/22 10:27:02;;;;;;;;;;;45.30;27.20;;;40.37;37.60;96147.31;4971940;28;20370;-65
2023/08/22 10:29:34;;;;;;;;;;;45.60;27.60;;;40.66;39.77;96162.16;4955202;28;20390;-66
2023/08/22 10:32:00;;;;;;;;;;;46.50;27.50;;;40.91;39.12;96156.84;4967811;28;19913;-65
2023/08/22 10:34:48;;;;;;;;;;;46.50;26.60;;;41.17;38.17;96136.47;4970857;28;20281;-65
2023/08/22 10:37:28;;;;;;;;;;;46.90;27.00;;;41.53;37.09;96136.66;4969548;28;19980;-64
2023/08/22 10:39:57;;;;;;;;;;;47.20;25.80;;;41.75;35.39;96120.97;4944198;28;19913;-65
2023/08/22 10:42:23;;;;;;;;;;;47.40;26.10;;;41.94;37.14;96139.19;4952987;28;19914;-65
2023/08/22 10:44:56;;;;;;;;;;;47.40;26.10;;;42.20;37.09;96141.63;4969576;28;19956;-64
2023/08/22 10:47:28;;;;;;;;;;;48.00;25.80;;;42.40;35.25;96123.44;4970091;28;19920;-65
2023/08/22 10:49:55;;;;;;;;;;;47.90;24.40;;;42.56;35.05;96119.53;4951729;28;20370;-65
2023/08/22 10:52:36;;;;;;;;;;;48.10;24.40;;;42.80;35.14;96124.25;4968150;28;19916;-65
2023/08/22 10:55:03;;;;;;;;;;;48.30;24.10;;;42.98;34.88;96125.00;4969021;28;20303;-64
2023/08/22 10:57:36;;;;;;;;;;;48.70;24.80;;;43.20;34.85;96131.25;4969270;28;19910;-64
2023/08/22 11:00:12;;;;;;;;;;;48.90;24.30;;;43.31;34.53;96125.72;4938178;28;19917;-65
2023/08/22 11:02:39;;;;;;;;;;;48.70;24.30;;;43.44;34.58;96126.84;4953684;28;19914;-65
2023/08/22 11:05:11;;;;;;;;;;;49.00;24.00;;;43.55;33.53;96110.97;4966677;28;19910;-65
2023/08/22 11:07:41;;;;;;;;;;;48.90;23.70;;;43.52;33.71;96109.00;4965847;28;19918;-67
2023/08/22 11:10:20;;;;;;;;;;;48.40;24.30;;;43.63;34.33;96120.81;4969297;28;19964;-66
2023/08/22 11:12:45;;;;;;;;;;;48.80;24.20;;;43.76;33.87;96117.63;4952219;28;19910;-66
2023/08/22 11:15:15;;;;;;;;;;;48.90;24.00;;;43.69;33.83;96108.16;4951812;28;19916;-66